Maersk Batur — 9V8207 — position and weather

sailwx.info

Track history (hours):
 
Tides and Currents Weather Stations Pressure Air Temp Water Temp Dewpoint Dewpoint Depression Visibility Wind Speed Wind Dir Waves Ship Positions

Maersk Batur

Last reported at 2017-Nov-18 12:00 UTC. Time now 2017-Nov-18 20:01 UTC.
Position N 37°42' E 008°54'.

Length 223 m; draft 10.4 m.

Type: Ship (hazmat cat A). MMSI: 564398000.

Wind from 300 at 16 knots

Barometer 1016.4 mb
Air temperature 18.8 ° C
Visibility: greater than 10.8 NM
Dewpoint 9.8 ° C
Water temperature 18.7 ° C

Date/timePositionNaut miles runAvg speedWind from/ knotsBaromVisibWave heightAir tempDewpointWater temp
2017-Nov-18 12:00N 37°42' E 008°54'24310.1 300 / 161016.410.8 18.8 9.818.7
2017-Nov-17 12:00N 36°36' E 013°48'1011.7 290 / 281010.710.8 18.512.220.9
2017-Nov-17 11:08N 36°35' E 014°00'110.2
2017-Nov-17 11:00N 36°35' E 014°02'510.2
2017-Nov-17 10:30N 36°34' E 014°08'510.1
2017-Nov-17 09:59N 36°32' E 014°14'510.1
2017-Nov-17 09:30N 36°31' E 014°20'6 9.8
2017-Nov-17 08:52N 36°29' E 014°28'4 9.6
2017-Nov-17 08:30N 36°28' E 014°32'5 9.9
2017-Nov-17 08:00N 36°28' E 014°38'421 9.4
2017-Nov-15 11:04N 36°55' E 023°22'4 9.8
2017-Nov-15 10:41N 36°57' E 023°26'  
2017-Nov-09 18:44N 44°25' E 037°22'418.5
2017-Nov-09 18:30N 44°27' E 037°27'918.5
2017-Nov-09 18:00N 44°31' E 037°38'917.4
2017-Nov-09 17:30N 44°37' E 037°48'5 9.3
2017-Nov-09 17:01N 44°41' E 037°50'2 4.8
2017-Nov-09 16:30N 44°43' E 037°49'0 0.0
2017-Nov-09 16:00N 44°43' E 037°49'0 0.0
2017-Nov-09 15:30N 44°43' E 037°49'0 0.0
2017-Nov-09 15:00N 44°43' E 037°49'0 0.0
2017-Nov-09 14:30N 44°43' E 037°49'0 0.0
2017-Nov-09 14:00N 44°43' E 037°49'0 0.0
2017-Nov-09 13:30N 44°43' E 037°49'0 0.0
2017-Nov-09 13:00N 44°43' E 037°49'0 0.0
2017-Nov-09 12:30N 44°43' E 037°49'0 0.0
2017-Nov-09 12:00N 44°43' E 037°49'0 0.0
2017-Nov-09 11:30N 44°43' E 037°49'0 0.0
2017-Nov-09 11:00N 44°43' E 037°49'0 0.0
2017-Nov-09 10:30N 44°43' E 037°49'0 0.0
2017-Nov-09 10:00N 44°43' E 037°49'0 0.0
2017-Nov-09 09:30N 44°43' E 037°49'0 0.0
2017-Nov-09 09:00N 44°43' E 037°49'0 0.0
2017-Nov-09 08:30N 44°43' E 037°49'0 0.0
2017-Nov-09 08:00N 44°43' E 037°49'0 0.0
2017-Nov-09 07:30N 44°43' E 037°49'0 0.0
2017-Nov-09 07:00N 44°43' E 037°49'0 0.0
2017-Nov-09 06:30N 44°43' E 037°49'0 0.0
2017-Nov-09 06:00N 44°43' E 037°49'0 0.0
2017-Nov-09 05:30N 44°43' E 037°49'0 0.0
2017-Nov-09 04:57N 44°43' E 037°49'0 0.0
2017-Nov-09 04:30N 44°43' E 037°49'0 0.0
2017-Nov-09 04:00N 44°43' E 037°49'0 0.0
2017-Nov-09 03:30N 44°43' E 037°49'0 0.0
2017-Nov-09 03:00N 44°43' E 037°49'0 0.0
2017-Nov-09 02:27N 44°43' E 037°49'0 0.0
2017-Nov-09 02:00N 44°43' E 037°49'0 0.0
2017-Nov-09 01:30N 44°43' E 037°49'0 0.0
2017-Nov-09 01:00N 44°43' E 037°49'0 0.0
2017-Nov-09 00:27N 44°43' E 037°49'0 0.0
2017-Nov-09 00:00N 44°43' E 037°49'0 0.0
2017-Nov-08 23:30N 44°43' E 037°49'0 0.0
2017-Nov-08 23:00N 44°43' E 037°49'0 0.0
2017-Nov-08 22:30N 44°43' E 037°49'0 0.0
2017-Nov-08 22:00N 44°43' E 037°49'0 0.0
2017-Nov-08 21:27N 44°43' E 037°49'0 0.0
2017-Nov-08 21:00N 44°43' E 037°49'0 0.0
2017-Nov-08 20:30N 44°43' E 037°49'0 0.0
2017-Nov-08 20:00N 44°43' E 037°49'0 0.0
2017-Nov-08 19:30N 44°43' E 037°49'0 0.0
2017-Nov-08 19:00N 44°43' E 037°49'0 0.0
2017-Nov-08 18:30N 44°43' E 037°49'0 0.0
2017-Nov-08 18:00N 44°43' E 037°49'0 0.0
2017-Nov-08 17:30N 44°43' E 037°49'0 0.0
2017-Nov-08 17:00N 44°43' E 037°49'0 0.0
2017-Nov-08 16:30N 44°43' E 037°49'0 0.0
2017-Nov-08 16:00N 44°43' E 037°49'0 0.0
2017-Nov-08 15:30N 44°43' E 037°49'0 0.0
2017-Nov-08 15:00N 44°43' E 037°49'0 0.0
2017-Nov-08 14:30N 44°43' E 037°49'0 0.0
2017-Nov-08 14:00N 44°43' E 037°49'0 0.0
2017-Nov-08 13:30N 44°43' E 037°49'0 0.0
2017-Nov-08 13:00N 44°43' E 037°49'0 0.0
2017-Nov-08 12:30N 44°43' E 037°49'0 0.5
2017-Nov-08 12:00N 44°43' E 037°49'  
Track history (hours):
 
Tides and Currents Weather Stations Pressure Air Temp Water Temp Dewpoint Dewpoint Depression Visibility Wind Speed Wind Dir Waves Ship Positions

Maersk Batur

Last reported at 2017-Nov-18 12:00 UTC. Time now 2017-Nov-18 20:01 UTC.
Position N 37°42' E 008°54'.

Length 223 m; draft 10.4 m.

Type: Ship (hazmat cat A). MMSI: 564398000.

Wind from 300 at 16 knots

Barometer 1016.4 mb
Air temperature 18.8 ° C
Visibility: greater than 10.8 NM
Dewpoint 9.8 ° C
Water temperature 18.7 ° C

Date/timePositionNaut miles runAvg speedWind from/ knotsBaromVisibWave heightAir tempDewpointWater temp
2017-Nov-18 12:00N 37°42' E 008°54'24310.1 300 / 161016.410.8 18.8 9.818.7
2017-Nov-17 12:00N 36°36' E 013°48'1011.7 290 / 281010.710.8 18.512.220.9
2017-Nov-17 11:08N 36°35' E 014°00'110.2
2017-Nov-17 11:00N 36°35' E 014°02'510.2
2017-Nov-17 10:30N 36°34' E 014°08'510.1
2017-Nov-17 09:59N 36°32' E 014°14'510.1
2017-Nov-17 09:30N 36°31' E 014°20'6 9.8
2017-Nov-17 08:52N 36°29' E 014°28'4 9.6
2017-Nov-17 08:30N 36°28' E 014°32'5 9.9
2017-Nov-17 08:00N 36°28' E 014°38'421 9.4
2017-Nov-15 11:04N 36°55' E 023°22'4 9.8
2017-Nov-15 10:41N 36°57' E 023°26'  
2017-Nov-09 18:44N 44°25' E 037°22'418.5
2017-Nov-09 18:30N 44°27' E 037°27'918.5
2017-Nov-09 18:00N 44°31' E 037°38'917.4
2017-Nov-09 17:30N 44°37' E 037°48'5 9.3
2017-Nov-09 17:01N 44°41' E 037°50'2 4.8
2017-Nov-09 16:30N 44°43' E 037°49'0 0.0
2017-Nov-09 16:00N 44°43' E 037°49'0 0.0
2017-Nov-09 15:30N 44°43' E 037°49'0 0.0
2017-Nov-09 15:00N 44°43' E 037°49'0 0.0
2017-Nov-09 14:30N 44°43' E 037°49'0 0.0
2017-Nov-09 14:00N 44°43' E 037°49'0 0.0
2017-Nov-09 13:30N 44°43' E 037°49'0 0.0
2017-Nov-09 13:00N 44°43' E 037°49'0 0.0
2017-Nov-09 12:30N 44°43' E 037°49'0 0.0
2017-Nov-09 12:00N 44°43' E 037°49'0 0.0
2017-Nov-09 11:30N 44°43' E 037°49'0 0.0
2017-Nov-09 11:00N 44°43' E 037°49'0 0.0
2017-Nov-09 10:30N 44°43' E 037°49'0 0.0
2017-Nov-09 10:00N 44°43' E 037°49'0 0.0
2017-Nov-09 09:30N 44°43' E 037°49'0 0.0
2017-Nov-09 09:00N 44°43' E 037°49'0 0.0
2017-Nov-09 08:30N 44°43' E 037°49'0 0.0
2017-Nov-09 08:00N 44°43' E 037°49'0 0.0
2017-Nov-09 07:30N 44°43' E 037°49'0 0.0
2017-Nov-09 07:00N 44°43' E 037°49'0 0.0
2017-Nov-09 06:30N 44°43' E 037°49'0 0.0
2017-Nov-09 06:00N 44°43' E 037°49'0 0.0
2017-Nov-09 05:30N 44°43' E 037°49'0 0.0
2017-Nov-09 04:57N 44°43' E 037°49'0 0.0
2017-Nov-09 04:30N 44°43' E 037°49'0 0.0
2017-Nov-09 04:00N 44°43' E 037°49'0 0.0
2017-Nov-09 03:30N 44°43' E 037°49'0 0.0
2017-Nov-09 03:00N 44°43' E 037°49'0 0.0
2017-Nov-09 02:27N 44°43' E 037°49'0 0.0
2017-Nov-09 02:00N 44°43' E 037°49'0 0.0
2017-Nov-09 01:30N 44°43' E 037°49'0 0.0
2017-Nov-09 01:00N 44°43' E 037°49'0 0.0
2017-Nov-09 00:27N 44°43' E 037°49'0 0.0
2017-Nov-09 00:00N 44°43' E 037°49'0 0.0
2017-Nov-08 23:30N 44°43' E 037°49'0 0.0
2017-Nov-08 23:00N 44°43' E 037°49'0 0.0
2017-Nov-08 22:30N 44°43' E 037°49'0 0.0
2017-Nov-08 22:00N 44°43' E 037°49'0 0.0
2017-Nov-08 21:27N 44°43' E 037°49'0 0.0
2017-Nov-08 21:00N 44°43' E 037°49'0 0.0
2017-Nov-08 20:30N 44°43' E 037°49'0 0.0
2017-Nov-08 20:00N 44°43' E 037°49'0 0.0
2017-Nov-08 19:30N 44°43' E 037°49'0 0.0
2017-Nov-08 19:00N 44°43' E 037°49'0 0.0
2017-Nov-08 18:30N 44°43' E 037°49'0 0.0
2017-Nov-08 18:00N 44°43' E 037°49'0 0.0
2017-Nov-08 17:30N 44°43' E 037°49'0 0.0
2017-Nov-08 17:00N 44°43' E 037°49'0 0.0
2017-Nov-08 16:30N 44°43' E 037°49'0 0.0
2017-Nov-08 16:00N 44°43' E 037°49'0 0.0
2017-Nov-08 15:30N 44°43' E 037°49'0 0.0
2017-Nov-08 15:00N 44°43' E 037°49'0 0.0
2017-Nov-08 14:30N 44°43' E 037°49'0 0.0
2017-Nov-08 14:00N 44°43' E 037°49'0 0.0
2017-Nov-08 13:30N 44°43' E 037°49'0 0.0
2017-Nov-08 13:00N 44°43' E 037°49'0 0.0
2017-Nov-08 12:30N 44°43' E 037°49'0 0.5
2017-Nov-08 12:00N 44°43' E 037°49'  

Dump ship's entire track history